createdAt,value
2018-08-20T00:02:25.805Z,15.93
2018-08-20T00:04:59.969Z,15.53
2018-08-20T00:07:38.588Z,13.27
2018-08-20T00:10:16.210Z,14.30
2018-08-20T00:12:53.344Z,14.43
2018-08-20T00:15:25.438Z,15.27
2018-08-20T00:18:01.185Z,14.63
2018-08-20T00:20:36.770Z,15.20
2018-08-20T00:23:14.398Z,15.07
2018-08-20T00:25:54.153Z,15.80
2018-08-20T00:28:31.350Z,14.03
2018-08-20T00:31:01.950Z,14.97
2018-08-20T00:33:38.578Z,14.73
2018-08-20T00:36:15.949Z,13.87
2018-08-20T00:38:53.113Z,14.30
2018-08-20T00:41:29.923Z,13.33
2018-08-20T00:44:07.822Z,13.80
2018-08-20T00:46:38.442Z,13.63
2018-08-20T00:49:16.959Z,14.20
2018-08-20T00:51:54.523Z,14.90
2018-08-20T00:54:31.333Z,14.23
2018-08-20T00:57:07.389Z,15.20
2018-08-20T00:59:46.753Z,12.47
2018-08-20T01:02:21.724Z,13.83
2018-08-20T01:04:52.351Z,12.83
2018-08-20T01:07:31.379Z,12.93
2018-08-20T01:10:07.519Z,14.30
2018-08-20T01:12:43.439Z,12.70
2018-08-20T01:15:23.396Z,14.63
2018-08-20T01:18:01.296Z,12.40
2018-08-20T01:20:38.321Z,13.03
2018-08-20T01:23:17.245Z,14.13
2018-08-20T01:25:52.708Z,12.67
2018-08-20T01:28:30.197Z,11.50
2018-08-20T01:31:01.069Z,11.07
2018-08-20T01:33:38.635Z,11.33
2018-08-20T01:36:14.803Z,11.70
2018-08-20T01:38:50.187Z,10.60
2018-08-20T01:41:27.485Z,10.80
2018-08-20T01:44:03.067Z,10.90
2018-08-20T01:46:40.262Z,10.90
2018-08-20T01:49:16.355Z,10.97
2018-08-20T01:51:53.586Z,10.20
2018-08-20T01:54:28.918Z,11.43
2018-08-20T01:57:06.809Z,10.57
2018-08-20T01:59:44.353Z,9.87
2018-08-20T02:02:21.662Z,11.53
2018-08-20T02:04:57.834Z,11.50
2018-08-20T02:07:33.378Z,12.47
2018-08-20T02:10:10.118Z,10.57
2018-08-20T02:12:45.720Z,11.40
2018-08-20T02:15:21.556Z,12.53
2018-08-20T02:17:58.689Z,13.20
2018-08-20T02:20:33.411Z,12.03
2018-08-20T02:23:09.295Z,12.17
2018-08-20T02:25:45.220Z,12.80
2018-08-20T02:28:22.194Z,13.30
2018-08-20T02:30:57.992Z,12.43
2018-08-20T02:33:34.924Z,12.37
2018-08-20T02:36:11.127Z,12.87
2018-08-20T02:38:48.420Z,12.50
2018-08-20T02:41:25.339Z,12.70
2018-08-20T02:44:02.293Z,11.97
2018-08-20T02:46:43.844Z,12.50
2018-08-20T02:49:22.750Z,10.80
2018-08-20T02:51:59.569Z,10.23
2018-08-20T02:54:36.308Z,10.83
2018-08-20T02:57:13.291Z,9.17
2018-08-20T02:59:50.310Z,10.47
2018-08-20T03:02:26.367Z,9.63
2018-08-20T03:05:03.928Z,10.60
2018-08-20T03:07:41.355Z,9.80
2018-08-20T03:10:17.198Z,9.70
2018-08-20T03:12:54.293Z,9.87
2018-08-20T03:15:30.086Z,9.37
2018-08-20T03:18:06.816Z,10.07
2018-08-20T03:20:43.656Z,8.90
2018-08-20T03:23:20.846Z,9.90
2018-08-20T03:25:57.971Z,10.10
2018-08-20T03:28:34.290Z,9.30
2018-08-20T03:31:13.164Z,10.43
2018-08-20T03:33:49.673Z,9.00
2018-08-20T03:36:26.806Z,10.40
2018-08-20T03:39:07.139Z,9.33
2018-08-20T03:41:43.238Z,8.20
2018-08-20T03:44:19.061Z,9.57
2018-08-20T03:46:56.020Z,8.90
2018-08-20T03:49:31.513Z,9.13
2018-08-20T03:52:07.630Z,8.97
2018-08-20T03:54:43.082Z,9.37
2018-08-20T03:57:19.729Z,8.13
2018-08-20T03:59:56.912Z,8.63
2018-08-20T04:02:33.901Z,8.00
2018-08-20T04:05:10.963Z,7.80
2018-08-20T04:07:47.472Z,7.87
2018-08-20T04:10:25.349Z,7.63
2018-08-20T04:13:01.070Z,8.20
2018-08-20T04:15:40.049Z,7.23
2018-08-20T04:18:16.751Z,7.50
2018-08-20T04:20:53.826Z,7.70
2018-08-20T04:23:31.082Z,7.20
2018-08-20T04:26:07.006Z,6.10
2018-08-20T04:28:42.783Z,6.97
2018-08-20T04:31:21.147Z,8.10
2018-08-20T04:33:57.911Z,7.57
2018-08-20T04:36:34.692Z,7.30
2018-08-20T04:39:10.686Z,6.43
2018-08-20T04:41:47.864Z,6.50
2018-08-20T04:44:25.313Z,6.70
2018-08-20T04:47:02.361Z,6.60
2018-08-20T04:49:39.293Z,6.30
2018-08-20T04:52:16.409Z,6.30
2018-08-20T04:54:53.445Z,7.10
2018-08-20T04:57:28.866Z,7.07
2018-08-20T05:00:06.806Z,6.40
2018-08-20T05:02:44.156Z,6.30
2018-08-20T05:05:21.315Z,5.80
2018-08-20T05:07:57.236Z,6.50
2018-08-20T05:10:34.223Z,6.10
2018-08-20T05:13:11.686Z,5.90
2018-08-20T05:15:49.242Z,5.80
2018-08-20T05:18:26.262Z,6.30
2018-08-20T05:21:02.670Z,5.47
2018-08-20T05:23:39.116Z,6.13
2018-08-20T05:26:15.902Z,5.83
2018-08-20T05:28:53.274Z,5.90
2018-08-20T05:31:30.511Z,5.77
2018-08-20T05:34:06.290Z,6.70
2018-08-20T05:36:42.282Z,6.80
2018-08-20T05:39:18.044Z,6.40
2018-08-20T05:41:53.321Z,6.50
2018-08-20T05:44:30.902Z,6.70
2018-08-20T05:47:08.217Z,8.20
2018-08-20T05:49:45.411Z,7.00
2018-08-20T05:52:21.031Z,8.33
2018-08-20T05:54:58.115Z,7.77
2018-08-20T05:57:34.377Z,7.67
2018-08-20T06:00:12.018Z,7.80
2018-08-20T06:02:49.200Z,8.23
2018-08-20T06:05:35.682Z,10.10
2018-08-20T06:08:11.888Z,9.00
2018-08-20T06:10:47.861Z,8.83
2018-08-20T06:13:25.242Z,12.03
2018-08-20T06:16:01.317Z,9.67
2018-08-20T06:18:37.023Z,11.00
2018-08-20T06:21:13.020Z,11.87
2018-08-20T06:23:49.046Z,11.20
2018-08-20T06:26:24.770Z,11.70
2018-08-20T06:29:00.509Z,10.87
2018-08-20T06:31:37.650Z,11.77
2018-08-20T06:34:16.824Z,11.67
2018-08-20T06:36:54.173Z,12.10
2018-08-20T06:39:31.806Z,10.80
2018-08-20T06:42:08.912Z,11.40
2018-08-20T06:44:48.235Z,11.33
2018-08-20T06:47:25.079Z,11.00
2018-08-20T06:50:02.462Z,12.27
2018-08-20T06:52:40.716Z,12.90
2018-08-20T06:55:17.854Z,11.67
2018-08-20T06:57:57.416Z,12.00
2018-08-20T07:00:39.124Z,13.37
2018-08-20T07:03:15.239Z,13.40
2018-08-20T07:05:52.652Z,12.80
2018-08-20T07:08:28.947Z,14.43
2018-08-20T07:11:06.298Z,14.00
2018-08-20T07:13:43.854Z,12.70
2018-08-20T07:16:22.866Z,14.37
2018-08-20T07:18:59.346Z,13.53
2018-08-20T07:21:38.904Z,14.90
2018-08-20T07:24:14.507Z,13.67
2018-08-20T07:26:54.919Z,13.73
2018-08-20T07:29:42.042Z,13.80
2018-08-20T07:32:19.584Z,14.47
2018-08-20T07:34:56.359Z,14.90
2018-08-20T07:37:32.625Z,16.27
2018-08-20T07:40:09.789Z,15.37
2018-08-20T07:42:47.202Z,15.77
2018-08-20T07:45:24.636Z,14.50
2018-08-20T07:48:01.017Z,15.53
2018-08-20T07:50:37.760Z,15.07
2018-08-20T07:53:13.927Z,14.63
2018-08-20T07:55:51.541Z,15.17
2018-08-20T07:58:28.532Z,15.93
2018-08-20T08:01:05.747Z,15.03
2018-08-20T08:03:41.657Z,13.87
2018-08-20T08:06:17.177Z,15.87
2018-08-20T08:08:53.541Z,15.93
2018-08-20T08:11:29.529Z,13.73
2018-08-20T08:14:06.598Z,13.93
2018-08-20T08:16:46.940Z,12.10
2018-08-20T08:19:23.387Z,13.23
2018-08-20T08:21:59.406Z,15.13
2018-08-20T08:24:34.442Z,13.20
2018-08-20T08:27:12.635Z,14.40
2018-08-20T08:29:49.779Z,13.00
2018-08-20T08:32:27.334Z,13.03
2018-08-20T08:35:04.421Z,14.50
2018-08-20T08:37:40.856Z,13.23
2018-08-20T08:40:18.668Z,13.63
2018-08-20T08:42:55.962Z,13.50
2018-08-20T08:45:32.984Z,15.50
2018-08-20T08:48:12.658Z,14.57
2018-08-20T08:50:49.062Z,31.30
2018-08-20T08:53:25.365Z,13.37
2018-08-20T08:56:03.759Z,14.47
2018-08-20T08:58:41.374Z,13.03
2018-08-20T09:01:19.108Z,15.27
2018-08-20T09:03:54.674Z,18.53
2018-08-20T09:06:31.636Z,14.67
2018-08-20T09:09:08.883Z,14.57
2018-08-20T09:11:44.704Z,15.10
2018-08-20T09:14:23.920Z,14.77
2018-08-20T09:17:01.743Z,17.20
2018-08-20T09:19:38.921Z,14.80
2018-08-20T09:22:14.851Z,18.30
2018-08-20T09:24:52.566Z,15.43
2018-08-20T09:27:28.927Z,16.63
2018-08-20T09:30:05.088Z,16.43
2018-08-20T09:32:40.937Z,17.00
2018-08-20T09:35:18.090Z,20.03
2018-08-20T09:37:55.176Z,19.90
2018-08-20T09:40:31.049Z,19.67
2018-08-20T09:43:06.988Z,19.33
2018-08-20T09:45:44.560Z,19.73
2018-08-20T09:48:24.672Z,20.33
2018-08-20T09:51:01.157Z,18.70
2018-08-20T09:53:40.727Z,17.47
2018-08-20T09:56:16.748Z,20.83
2018-08-20T09:58:55.428Z,19.27
2018-08-20T10:01:32.618Z,22.00
2018-08-20T10:04:09.839Z,20.40
2018-08-20T10:06:48.232Z,19.33
2018-08-20T10:09:24.558Z,22.40
2018-08-20T10:12:03.520Z,23.70
2018-08-20T10:14:40.898Z,23.37
2018-08-20T10:17:19.433Z,20.10
2018-08-20T10:19:56.928Z,22.80
2018-08-20T10:22:34.162Z,20.87
2018-08-20T10:25:11.314Z,22.37
2018-08-20T10:27:47.251Z,22.50
2018-08-20T10:30:24.573Z,20.20
2018-08-20T10:33:01.259Z,20.13
2018-08-20T10:35:40.947Z,21.80
2018-08-20T10:38:18.843Z,20.43
2018-08-20T10:40:55.819Z,18.67
2018-08-20T10:43:34.114Z,20.10
2018-08-20T10:46:17.172Z,18.50
2018-08-20T10:48:53.780Z,20.33
2018-08-20T10:51:31.346Z,18.90
2018-08-20T10:54:10.497Z,19.90
2018-08-20T10:56:47.098Z,19.60
2018-08-20T10:59:24.107Z,19.47
2018-08-20T11:02:00.962Z,20.00
2018-08-20T11:04:38.187Z,19.40
2018-08-20T11:07:16.182Z,19.17
2018-08-20T11:09:56.235Z,17.50
2018-08-20T11:12:34.180Z,17.80
2018-08-20T11:15:11.823Z,18.57
2018-08-20T11:17:48.445Z,16.53
2018-08-20T11:20:25.450Z,17.17
2018-08-20T11:23:01.485Z,16.67
2018-08-20T11:25:37.888Z,17.47
2018-08-20T11:28:21.074Z,17.47
2018-08-20T11:30:58.706Z,15.47
2018-08-20T11:33:35.269Z,16.23
2018-08-20T11:36:12.187Z,17.73
2018-08-20T11:38:48.816Z,16.50
2018-08-20T11:41:27.768Z,16.53
2018-08-20T11:44:05.022Z,16.60
2018-08-20T11:46:42.579Z,18.87
2018-08-20T11:49:20.497Z,16.73
2018-08-20T11:51:57.354Z,14.83
2018-08-20T11:54:34.977Z,15.57
2018-08-20T11:57:11.091Z,15.43
2018-08-20T11:59:47.975Z,14.37
2018-08-20T12:02:24.120Z,14.03
2018-08-20T12:05:01.782Z,14.53
2018-08-20T12:07:38.645Z,14.20
2018-08-20T12:10:17.260Z,14.37
2018-08-20T12:12:57.019Z,13.87
2018-08-20T12:15:33.415Z,14.30
2018-08-20T12:18:10.088Z,14.43
2018-08-20T12:20:52.223Z,14.10
2018-08-20T12:23:28.862Z,15.33
2018-08-20T12:26:05.219Z,14.57
2018-08-20T12:28:42.006Z,14.90
2018-08-20T12:31:19.370Z,14.03
2018-08-20T12:33:56.218Z,16.00
2018-08-20T12:36:33.769Z,15.80
2018-08-20T12:39:10.313Z,16.57
2018-08-20T12:41:47.146Z,16.70
2018-08-20T12:44:24.749Z,16.43
2018-08-20T12:47:00.710Z,16.83
2018-08-20T12:49:38.229Z,17.13
2018-08-20T12:52:15.778Z,16.50
2018-08-20T12:54:51.780Z,17.27
2018-08-20T12:57:29.743Z,17.47
2018-08-20T13:00:09.660Z,15.97
2018-08-20T13:02:47.695Z,16.60
2018-08-20T13:05:25.035Z,16.67
2018-08-20T13:08:02.774Z,16.47
2018-08-20T13:10:40.421Z,15.37
2018-08-20T13:13:18.830Z,16.83
2018-08-20T13:15:54.804Z,15.00
2018-08-20T13:18:32.950Z,15.47
2018-08-20T13:21:11.205Z,15.43
2018-08-20T13:23:48.253Z,14.47
2018-08-20T13:26:28.120Z,15.80
2018-08-20T13:29:04.716Z,15.23
2018-08-20T13:31:41.965Z,14.90
2018-08-20T13:34:18.449Z,13.50
2018-08-20T13:36:55.256Z,10.00
2018-08-20T13:39:33.327Z,10.20
2018-08-20T13:42:09.484Z,8.30
2018-08-20T13:44:46.512Z,10.30
2018-08-20T13:47:26.178Z,9.17
2018-08-20T13:50:16.664Z,10.00
2018-08-20T13:52:53.160Z,10.50
2018-08-20T13:55:31.201Z,10.10
2018-08-20T13:58:07.881Z,9.70
2018-08-20T14:00:45.357Z,9.83
2018-08-20T14:03:24.238Z,11.70
2018-08-20T14:06:05.935Z,13.10
2018-08-20T14:08:43.997Z,11.47
2018-08-20T14:11:21.190Z,12.40
2018-08-20T14:13:58.914Z,11.60
2018-08-20T14:16:36.897Z,11.93
2018-08-20T14:19:14.542Z,10.97
2018-08-20T14:21:52.384Z,12.00
2018-08-20T14:24:28.730Z,11.93
2018-08-20T14:27:05.624Z,13.47
2018-08-20T14:29:44.821Z,12.70
2018-08-20T14:32:24.323Z,12.33
2018-08-20T14:35:01.017Z,12.47
2018-08-20T14:37:41.064Z,11.33
2018-08-20T14:40:20.021Z,12.40
2018-08-20T14:42:55.947Z,12.90
2018-08-20T14:45:37.300Z,12.87
2018-08-20T14:48:13.619Z,13.50
2018-08-20T14:50:55.368Z,14.50
2018-08-20T14:53:32.070Z,13.10
2018-08-20T14:56:08.490Z,12.80
2018-08-20T14:58:48.647Z,11.80
2018-08-20T15:01:26.092Z,11.97
2018-08-20T15:04:02.282Z,12.07
2018-08-20T15:07:14.407Z,10.40
2018-08-20T15:09:52.178Z,11.80
2018-08-20T15:12:31.467Z,9.37
2018-08-20T15:15:09.580Z,11.50
2018-08-20T15:17:47.359Z,11.00
2018-08-20T15:20:24.651Z,13.10
2018-08-20T15:23:00.830Z,12.13
2018-08-20T15:25:38.257Z,10.20
2018-08-20T15:28:14.968Z,9.57
2018-08-20T15:30:51.953Z,8.10
2018-08-20T15:33:28.816Z,6.67
2018-08-20T15:36:06.141Z,5.47
2018-08-20T15:38:42.797Z,5.20
2018-08-20T15:41:20.936Z,5.23
2018-08-20T15:43:58.367Z,4.50
2018-08-20T15:46:34.935Z,4.10
2018-08-20T15:49:13.524Z,3.77
2018-08-20T15:51:52.704Z,4.30
2018-08-20T15:54:30.032Z,2.73
2018-08-20T15:57:05.982Z,2.90
2018-08-20T15:59:42.153Z,3.37
2018-08-20T16:02:19.357Z,3.27
2018-08-20T16:04:57.017Z,2.97
2018-08-20T16:07:32.819Z,2.60
2018-08-20T16:10:09.334Z,2.70
2018-08-20T16:12:45.952Z,3.30
2018-08-20T16:15:23.635Z,2.60
2018-08-20T16:18:00.774Z,2.43
2018-08-20T16:20:38.069Z,3.00
2018-08-20T16:23:14.263Z,3.23
2018-08-20T16:25:53.937Z,2.70
2018-08-20T16:28:30.869Z,2.73
2018-08-20T16:31:07.575Z,2.53
2018-08-20T16:33:46.605Z,2.50
2018-08-20T16:36:24.125Z,2.80
2018-08-20T16:38:59.921Z,2.10
2018-08-20T16:41:37.484Z,3.00
2018-08-20T16:44:13.918Z,2.53
2018-08-20T16:46:53.478Z,3.03
2018-08-20T16:49:30.909Z,3.10
2018-08-20T16:52:08.724Z,3.27
2018-08-20T16:54:50.574Z,3.13
2018-08-20T16:57:26.920Z,2.80
2018-08-20T17:00:03.414Z,3.30
2018-08-20T17:02:41.017Z,3.50
2018-08-20T17:05:17.312Z,3.43
2018-08-20T17:07:53.267Z,3.63
2018-08-20T17:10:31.130Z,4.10
2018-08-20T17:13:08.646Z,3.63
2018-08-20T17:15:45.496Z,4.03
2018-08-20T17:18:23.484Z,4.07
2018-08-20T17:21:00.346Z,3.40
2018-08-20T17:23:37.535Z,3.43
2018-08-20T17:26:17.306Z,4.40
2018-08-20T17:28:56.891Z,5.00
2018-08-20T17:31:36.749Z,4.07
2018-08-20T17:34:12.629Z,5.00
2018-08-20T17:36:50.355Z,4.47
2018-08-20T17:39:32.546Z,4.90
2018-08-20T17:42:09.647Z,4.50
2018-08-20T17:44:49.179Z,5.07
2018-08-20T17:47:26.905Z,5.50
2018-08-20T17:50:03.047Z,5.80
2018-08-20T17:52:41.534Z,5.80
2018-08-20T17:55:18.963Z,5.50
2018-08-20T17:57:56.547Z,5.80
2018-08-20T18:01:08.171Z,4.77
2018-08-20T18:03:44.870Z,5.20
2018-08-20T18:06:21.850Z,5.27
2018-08-20T18:08:58.222Z,5.27
2018-08-20T18:11:36.969Z,5.33
2018-08-20T18:14:13.666Z,4.97
2018-08-20T18:16:49.629Z,5.13
2018-08-20T18:19:26.750Z,5.00
2018-08-20T18:22:04.308Z,5.37
2018-08-20T18:24:41.902Z,5.60
2018-08-20T18:27:18.925Z,4.83
2018-08-20T18:29:56.322Z,4.80
2018-08-20T18:32:34.612Z,5.70
2018-08-20T18:35:10.251Z,5.87
2018-08-20T18:37:55.263Z,5.03
2018-08-20T18:40:34.719Z,5.60
2018-08-20T18:43:11.226Z,4.97
2018-08-20T18:45:48.200Z,5.43
2018-08-20T18:48:34.626Z,5.97
2018-08-20T18:51:14.210Z,5.53
2018-08-20T18:53:52.468Z,5.60
2018-08-20T18:56:30.282Z,5.90
2018-08-20T18:59:06.880Z,6.07
2018-08-20T19:01:43.534Z,5.13
2018-08-20T19:04:20.701Z,5.10
2018-08-20T19:07:02.333Z,5.70
2018-08-20T19:09:40.422Z,6.10
2018-08-20T19:12:20.785Z,5.97
2018-08-20T19:14:58.995Z,6.17
2018-08-20T19:17:36.595Z,5.33
2018-08-20T19:20:12.832Z,5.90
2018-08-20T19:22:49.346Z,5.47
2018-08-20T19:25:26.808Z,6.67
2018-08-20T19:28:09.102Z,6.50
2018-08-20T19:30:46.688Z,5.40
2018-08-20T19:33:24.733Z,5.97
2018-08-20T19:36:02.411Z,5.30
2018-08-20T19:38:38.294Z,5.97
2018-08-20T19:41:16.923Z,5.20
2018-08-20T19:43:54.230Z,5.03
2018-08-20T19:46:36.561Z,6.30
2018-08-20T19:49:15.187Z,5.10
2018-08-20T19:51:52.761Z,5.17
2018-08-20T19:54:28.963Z,4.97
2018-08-20T19:57:05.057Z,5.10
2018-08-20T19:59:41.228Z,6.17
2018-08-20T20:02:21.273Z,6.57
2018-08-20T20:05:05.047Z,5.00
2018-08-20T20:07:37.585Z,6.40
2018-08-20T20:10:14.376Z,5.10
2018-08-20T20:12:56.117Z,6.70
2018-08-20T20:15:33.289Z,4.80
2018-08-20T20:18:09.399Z,5.63
2018-08-20T20:20:46.732Z,5.30
2018-08-20T20:23:22.357Z,6.27
2018-08-20T20:25:59.366Z,5.60
2018-08-20T20:28:35.315Z,6.10
2018-08-20T20:31:11.536Z,5.67
2018-08-20T20:33:49.041Z,5.17
2018-08-20T20:36:26.625Z,5.60
2018-08-20T20:39:02.794Z,5.27
2018-08-20T20:41:40.273Z,5.20
2018-08-20T20:44:16.270Z,4.83
2018-08-20T20:46:55.461Z,5.30
2018-08-20T20:49:32.846Z,5.33
2018-08-20T20:52:10.138Z,4.93
2018-08-20T20:54:47.641Z,4.50
2018-08-20T20:57:23.657Z,5.70
2018-08-20T21:00:00.889Z,5.30
2018-08-20T21:02:36.647Z,4.97
2018-08-20T21:05:13.291Z,4.47
2018-08-20T21:07:50.092Z,4.70
2018-08-20T21:10:33.829Z,4.33
2018-08-20T21:13:09.809Z,4.03
2018-08-20T21:15:57.137Z,5.03
2018-08-20T21:18:34.971Z,7.87
2018-08-20T21:21:12.282Z,4.97
2018-08-20T21:23:49.758Z,4.20
2018-08-20T21:26:26.594Z,5.00
2018-08-20T21:29:03.411Z,3.93
2018-08-20T21:31:44.745Z,4.77
2018-08-20T21:34:15.846Z,4.73
2018-08-20T21:36:53.319Z,4.57
2018-08-20T21:39:29.685Z,4.20
2018-08-20T21:42:05.460Z,3.90
2018-08-20T21:44:43.205Z,4.27
2018-08-20T21:47:32.266Z,4.23
2018-08-20T21:50:09.504Z,4.17
2018-08-20T21:52:46.779Z,4.07
2018-08-20T21:55:23.484Z,4.70
2018-08-20T21:57:59.596Z,3.27
2018-08-20T22:00:36.888Z,3.73
2018-08-20T22:03:14.068Z,3.80
2018-08-20T22:05:49.918Z,4.00
2018-08-20T22:08:29.325Z,3.90
2018-08-20T22:11:07.048Z,3.40
2018-08-20T22:13:44.511Z,4.20
2018-08-20T22:16:26.706Z,4.07
2018-08-20T22:19:02.742Z,4.53
2018-08-20T22:21:38.086Z,4.63
2018-08-20T22:24:13.773Z,3.90
2018-08-20T22:26:56.146Z,3.90
2018-08-20T22:29:38.796Z,4.20
2018-08-20T22:32:16.899Z,3.70
2018-08-20T22:34:52.703Z,4.97
2018-08-20T22:37:30.791Z,4.77
2018-08-20T22:40:07.339Z,4.80
2018-08-20T22:42:54.782Z,4.67
2018-08-20T22:45:32.206Z,4.33
2018-08-20T22:48:08.074Z,4.60
2018-08-20T22:50:46.118Z,4.80
2018-08-20T22:53:31.277Z,4.43
2018-08-20T22:56:13.538Z,4.60
2018-08-20T22:58:50.602Z,5.33
2018-08-20T23:01:28.106Z,4.60
2018-08-20T23:04:05.403Z,4.70
2018-08-20T23:06:42.622Z,4.57
2018-08-20T23:09:29.676Z,5.40
2018-08-20T23:12:07.777Z,5.67
2018-08-20T23:14:45.396Z,5.03
2018-08-20T23:17:20.833Z,5.60
2018-08-20T23:19:57.072Z,4.37
2018-08-20T23:22:33.828Z,5.37
2018-08-20T23:25:11.124Z,4.93
2018-08-20T23:27:49.430Z,5.40
2018-08-20T23:30:26.649Z,5.30
2018-08-20T23:33:02.291Z,5.37
2018-08-20T23:35:37.815Z,4.90
2018-08-20T23:38:13.295Z,5.60
2018-08-20T23:40:50.847Z,5.20
2018-08-20T23:43:28.129Z,5.80
2018-08-20T23:46:05.918Z,5.87
2018-08-20T23:48:42.080Z,5.53
2018-08-20T23:51:19.694Z,5.93
2018-08-20T23:53:57.067Z,6.80
2018-08-20T23:56:34.678Z,5.33
2018-08-20T23:59:11.800Z,7.13
